Home   Weather   USA   Durango   Past weeks
Flag for USA

Past Weather in Durango, Colorado, USA — Yesterday and Last 2 Weeks

Currently: 30 °F. Passing clouds. (Weather station: Durango-La Plata County Airport, USA). See more current weather

Past Weather in Durango — Graph

°F

Durango Temperature Yesterday

Maximum temperature yesterday: 47 °F (at 5:53 pm)
Minimum temperature yesterday: 31 °F (at 5:57 am)
Average temperature yesterday: 37 °F

High & Low Weather Summary for the Past Weeks

 TemperatureHumidityPressure
High74 °F (Apr 4, 3:53 pm)100% (Apr 17, 5:57 am)30.20 "Hg (Apr 17, 5:57 am)
Low21 °F (Apr 16, 6:53 am)4% (Apr 10, 5:53 pm)29.58 "Hg (Apr 6, 2:53 am)
Average48 °F32%29.89 "Hg
* Reported Apr 3 12:53 am — Apr 18 12:53 am, Durango. Weather by CustomWeather, © 2021

Note: Actual official high and low records may vary slightly from our data, if they occured in-between our weather recording intervals... More about our weather records

Durango Weather History for the Previous 24 Hours

Scroll right to see more
 ConditionsComfort  
Time TempWeatherWind HumidityBarometerVisibility
12:53 am
Sun, Apr 18
30 °FClear.5 mph92%30.20 "Hg10 mi
11:53 pm
Sat, Apr 17
31 °FClear.5 mph89%30.18 "Hg10 mi
10:53 pm32 °FPassing clouds.6 mph85%30.17 "Hg10 mi
9:53 pm35 °FPassing clouds.7 mph75%30.16 "Hg10 mi
8:53 pm37 °FClear.9 mph67%30.13 "Hg10 mi
7:53 pm39 °FClear.6 mph53%30.09 "Hg10 mi
6:53 pm45 °FSunny.7 mph40%30.04 "Hg10 mi
5:53 pm47 °FSunny.9 mph33%30.02 "Hg10 mi
4:53 pm46 °FSunny.13 mph40%30.00 "Hg10 mi
3:53 pm46 °FPassing clouds.18 mph50%30.01 "Hg10 mi
2:53 pm43 °FBroken clouds.17 mph60%30.04 "Hg10 mi
2:24 pm43 °FScattered clouds.24 mph62%30.07 "Hg10 mi
2:05 pm44 °FMore clouds than sun.15 mph51%30.06 "Hg10 mi
1:24 pm39 °FThundershowers. Mostly cloudy.15 mph70%30.06 "Hg9 mi
1:03 pm45 °FThunderstorms. Cloudy.17 mph58%30.05 "Hg10 mi
12:53 pm43 °FThundershowers. Mostly cloudy.16 mph53%30.04 "Hg10 mi
11:53 am43 °FScattered clouds.8 mph58%30.06 "Hg10 mi
11:00 am41 °FScattered clouds.10 mph70%30.07 "Hg10 mi
10:16 am36 °FScattered clouds.3 mph85%30.08 "Hg10 mi
10:08 am36 °FBroken clouds.6 mph85%30.08 "Hg10 mi
9:53 am36 °FMostly cloudy.6 mph89%30.07 "Hg10 mi
9:39 am36 °FCloudy.No wind85%30.08 "Hg10 mi
8:53 am34 °FLow clouds.No wind92%30.07 "Hg10 mi
8:27 am33 °FMostly cloudy.No wind92%30.07 "Hg10 mi
8:00 am32 °FMostly cloudy.3 mph96%30.07 "Hg10 mi
7:15 am31 °FLight snow. Ice fog.3 mph100%30.06 "Hg3 mi
7:05 am31 °FLight snow. Ice fog.3 mph100%30.06 "Hg2 mi
6:53 am31 °FLight snow. Ice fog.3 mph100%30.02 "Hg1 mi
6:21 am31 °FLight snow. Ice fog.No wind96%30.05 "Hg1 mi
6:04 am31 °FLight snow. Ice fog.5 mph100%30.06 "Hg1 mi
5:57 am31 °FLight snow. Ice fog.6 mph100%30.06 "Hg1 mi
5:38 am34 °FLight snow. Overcast.7 mph82%30.05 "Hg4 mi
4:53 am35 °FMostly cloudy.15 mph70%29.98 "Hg10 mi
3:53 am34 °FMostly cloudy.5 mph52%29.96 "Hg10 mi
2:53 am34 °FOvercast.6 mph50%29.95 "Hg10 mi
Weather by CustomWeather, © 2021

See weather overview